Time;durP1;ratioP1;P1;durP2;ratioP2;P2;SDS_P1;SDS_P2;PMS_P1;PMS_P2;Temp;Humidity;BMP_temperature;BMP_pressure;BME280_temperature;BME280_humidity;BME280_pressure;Samples;Min_cycle;Max_cycle;Signal;HPM_P1;HPM_P2
2023/03/07 00:04:25;;;;;;;2.08;1.33;;;;;;;20.26;44.23;95489.63;10456558;28;20075;-51
2023/03/07 00:09:44;;;;;;;2.08;1.13;;;;;;;20.24;44.19;95485.72;10457027;28;20065;-51
2023/03/07 00:15:04;;;;;;;1.73;1.15;;;;;;;20.22;44.15;95483.38;10456942;28;20106;-51
2023/03/07 00:20:23;;;;;;;1.95;1.10;;;;;;;20.22;44.05;95477.97;10456655;28;20064;-51
2023/03/07 00:25:43;;;;;;;2.70;1.13;;;;;;;20.20;44.05;95477.53;10455718;28;20053;-52
2023/03/07 00:31:07;;;;;;;1.80;1.00;;;;;;;20.19;43.99;95477.91;10455949;28;20057;-51
2023/03/07 00:36:27;;;;;;;1.73;1.10;;;;;;;20.16;44.04;95468.59;10456439;28;20049;-50
2023/03/07 00:41:46;;;;;;;1.75;1.10;;;;;;;20.15;44.02;95453.53;10441413;28;20057;-51
2023/03/07 00:47:06;;;;;;;1.70;0.95;;;;;;;20.12;43.95;95446.88;10440735;28;20082;-51
2023/03/07 00:52:25;;;;;;;2.28;1.00;;;;;;;20.11;43.84;95442.63;10440653;28;20056;-50
2023/03/07 00:57:45;;;;;;;1.58;0.98;;;;;;;20.10;43.96;95437.59;10441291;28;20049;-53
2023/03/07 01:03:05;;;;;;;1.55;0.93;;;;;;;20.08;43.79;95426.34;10456249;28;20053;-50
2023/03/07 01:08:24;;;;;;;1.63;1.10;;;;;;;20.07;43.95;95422.88;10456140;28;20072;-51
2023/03/07 01:13:44;;;;;;;2.38;1.05;;;;;;;20.05;43.89;95408.13;10440121;28;20056;-50
2023/03/07 01:19:06;;;;;;;1.40;1.08;;;;;;;20.03;43.77;95405.81;10456103;28;20061;-51
2023/03/07 01:24:26;;;;;;;1.15;1.02;;;;;;;20.02;43.72;95403.47;10440733;28;20045;-51
2023/03/07 01:29:46;;;;;;;1.48;1.05;;;;;;;20.01;43.77;95399.19;10455443;28;20067;-51
2023/03/07 01:35:06;;;;;;;1.48;0.90;;;;;;;19.98;43.67;95395.28;10472408;28;20045;-51
2023/03/07 01:40:26;;;;;;;1.20;1.05;;;;;;;19.97;43.78;95385.63;10447991;28;20072;-52
2023/03/07 01:45:50;;;;;;;2.08;1.00;;;;;;;19.95;43.58;95396.81;10476093;28;20045;-51
2023/03/07 01:51:11;;;;;;;1.40;0.90;;;;;;;19.94;43.57;95375.53;10446782;28;20475;-51
2023/03/07 01:56:31;;;;;;;1.45;1.10;;;;;;;19.91;43.63;95382.44;10447107;28;20119;-49
2023/03/07 02:01:50;;;;;;;0.93;0.90;;;;;;;19.91;43.58;95373.53;10461554;28;20053;-51
2023/03/07 02:07:10;;;;;;;1.02;0.82;;;;;;;19.88;43.49;95366.94;10447240;28;20053;-50
2023/03/07 02:12:31;;;;;;;1.33;1.13;;;;;;;19.87;43.54;95365.38;10433011;28;20132;-51
2023/03/07 02:17:52;;;;;;;1.48;0.80;;;;;;;19.85;43.61;95362.25;10446055;28;20079;-51
2023/03/07 02:23:23;;;;;;;1.35;1.10;;;;;;;19.83;43.43;95348.31;10474686;28;20041;-51
2023/03/07 02:28:44;;;;;;;1.48;0.90;;;;;;;19.82;43.46;95346.78;10431241;28;20520;-52
2023/03/07 02:34:22;;;;;;;0.98;0.88;;;;;;;19.81;43.45;95355.22;10445812;28;20045;-51
2023/03/07 02:39:46;;;;;;;1.30;0.90;;;;;;;19.78;43.36;95345.94;10445452;28;20106;-51
2023/03/07 02:45:10;;;;;;;1.02;0.90;;;;;;;19.76;43.52;95348.22;10457716;28;20052;-52
2023/03/07 02:50:31;;;;;;;1.50;0.90;;;;;;;19.76;43.54;95342.81;10445190;28;20053;-51
2023/03/07 02:55:51;;;;;;;1.98;1.00;;;;;;;19.73;43.60;95338.91;10459975;28;20103;-52
2023/03/07 03:01:11;;;;;;;1.15;0.98;;;;;;;19.71;43.39;95326.88;10444801;28;20103;-51
2023/03/07 03:06:31;;;;;;;0.70;0.70;;;;;;;19.70;43.43;95328.03;10459919;28;20053;-51
2023/03/07 03:11:50;;;;;;;0.93;0.82;;;;;;;19.68;43.42;95327.56;10444112;28;20060;-52
2023/03/07 03:17:15;;;;;;;1.38;1.00;;;;;;;19.66;43.41;95325.25;10443918;28;20094;-51
2023/03/07 03:22:34;;;;;;;1.27;1.00;;;;;;;19.64;43.47;95324.03;10459158;28;20061;-52
2023/03/07 03:27:56;;;;;;;0.93;0.82;;;;;;;19.62;43.29;95318.22;10443876;28;20111;-51
2023/03/07 03:33:17;;;;;;;1.50;0.90;;;;;;;19.62;43.40;95320.91;10443521;28;20049;-51
2023/03/07 03:38:39;;;;;;;1.05;0.80;;;;;;;19.59;43.34;95306.22;10458423;28;20052;-52
2023/03/07 03:44:01;;;;;;;1.10;0.75;;;;;;;19.58;43.38;95304.63;10442901;28;20045;-52
2023/03/07 03:49:23;;;;;;;1.00;0.80;;;;;;;19.56;43.41;95296.13;10442454;28;20057;-51
2023/03/07 03:54:44;;;;;;;1.30;0.80;;;;;;;19.53;43.32;95305.72;10456834;28;20174;-51
2023/03/07 04:00:05;;;;;;;1.00;0.90;;;;;;;19.52;43.29;95298.78;10457311;28;20064;-51
2023/03/07 04:05:33;;;;;;;1.00;0.90;;;;;;;19.52;43.28;95295.28;10457508;28;20045;-51
2023/03/07 04:10:53;;;;;;;0.80;0.70;;;;;;;19.49;43.22;95302.19;10457544;28;20409;-51
2023/03/07 04:16:12;;;;;;;0.77;0.70;;;;;;;19.47;43.45;95293.66;10442182;28;20080;-50
2023/03/07 04:21:32;;;;;;;1.35;0.90;;;;;;;19.46;43.29;95292.09;10456784;28;20053;-50
2023/03/07 04:26:53;;;;;;;0.93;0.80;;;;;;;19.44;43.32;95283.56;10441692;28;20068;-51
2023/03/07 04:32:13;;;;;;;0.70;0.70;;;;;;;19.43;43.28;95278.56;10441680;28;20056;-52
2023/03/07 04:37:32;;;;;;;0.85;0.70;;;;;;;19.42;43.30;95275.03;10456103;28;20041;-51
2023/03/07 04:42:52;;;;;;;1.15;0.80;;;;;;;19.38;43.35;95273.44;10441510;28;20053;-52
2023/03/07 04:48:12;;;;;;;0.80;0.80;;;;;;;19.37;43.18;95269.97;10441152;28;20053;-50
2023/03/07 04:53:32;;;;;;;0.70;0.70;;;;;;;19.35;43.18;95264.16;10455181;28;20053;-51
2023/03/07 04:58:52;;;;;;;0.77;0.68;;;;;;;19.34;43.21;95257.16;10454210;28;20041;-50
2023/03/07 05:04:12;;;;;;;0.77;0.77;;;;;;;19.32;43.32;95246.72;10455761;28;20049;-49
2023/03/07 05:09:32;;;;;;;0.73;0.70;;;;;;;19.31;43.26;95242.47;10458781;28;20048;-52
2023/03/07 05:14:52;;;;;;;0.60;0.57;;;;;;;19.29;43.21;95238.59;10477100;28;20496;-52
2023/03/07 05:20:13;;;;;;;0.70;0.70;;;;;;;19.28;43.30;95242.41;10447943;28;20501;-52
2023/03/07 05:25:33;;;;;;;0.73;0.70;;;;;;;19.28;43.34;95228.91;10448104;28;20575;-51
2023/03/07 05:30:53;;;;;;;0.77;0.70;;;;;;;19.25;43.30;95222.31;10462606;28;20459;-52
2023/03/07 05:36:14;;;;;;;0.82;0.80;;;;;;;19.24;43.18;95233.47;10476259;28;20044;-52
2023/03/07 05:41:34;;;;;;;1.95;0.73;;;;;;;19.24;43.21;95228.06;10447562;28;20064;-51
2023/03/07 05:46:53;;;;;;;1.48;0.90;;;;;;;19.23;43.26;95231.91;10462858;28;20049;-51
2023/03/07 05:52:12;;;;;;;0.60;0.60;;;;;;;19.22;43.22;95227.66;10462110;28;20072;-52
2023/03/07 05:57:32;;;;;;;1.00;0.90;;;;;;;19.23;43.14;95227.31;10475752;28;20041;-51
2023/03/07 06:02:52;;;;;;;1.17;0.80;;;;;;;19.24;43.14;95220.75;10446979;28;20060;-52
2023/03/07 06:08:12;;;;;;;0.77;0.77;;;;;;;19.24;43.39;95228.84;10474992;28;20129;-51
2023/03/07 06:13:31;;;;;;;0.70;0.70;;;;;;;19.26;43.41;95223.09;10474659;28;20052;-51
2023/03/07 06:18:51;;;;;;;2.00;0.80;;;;;;;19.28;43.70;95226.97;10461566;28;20057;-50
2023/03/07 06:24:11;;;;;;;0.60;0.60;;;;;;;19.31;43.74;95228.97;10461560;28;20056;-49
2023/03/07 06:29:32;;;;;;;0.77;0.70;;;;;;;19.33;43.61;95223.22;10445823;28;20390;-50
2023/03/07 06:34:51;;;;;;;1.20;0.70;;;;;;;19.34;43.48;95230.94;10445467;28;20057;-50
2023/03/07 06:40:11;;;;;;;0.70;0.70;;;;;;;19.36;43.48;95230.59;10445428;28;20052;-53
2023/03/07 06:45:32;;;;;;;1.00;0.70;;;;;;;19.38;43.52;95231.00;10445699;28;20056;-52
2023/03/07 06:50:52;;;;;;;0.88;0.80;;;;;;;19.41;43.57;95226.81;10444920;28;20421;-49
2023/03/07 06:56:12;;;;;;;2.80;0.80;;;;;;;19.42;43.56;95226.44;10444806;28;20455;-50
2023/03/07 07:01:34;;;;;;;1.48;0.80;;;;;;;19.45;43.36;95224.97;10444597;28;20060;-52
2023/03/07 07:06:54;;;;;;;0.82;0.80;;;;;;;19.48;43.00;95230.41;10443823;28;20516;-52
2023/03/07 07:12:14;;;;;;;0.80;0.80;;;;;;;19.50;43.06;95233.53;10458638;28;20520;-51
2023/03/07 07:17:34;;;;;;;1.27;0.73;;;;;;;19.53;43.06;95230.09;10459389;28;20045;-52
2023/03/07 07:22:54;;;;;;;0.80;0.80;;;;;;;19.55;42.98;95219.72;10443886;28;20064;-51
2023/03/07 07:28:13;;;;;;;1.08;0.80;;;;;;;19.59;42.96;95213.59;10458120;28;20052;-51
2023/03/07 07:33:34;;;;;;;0.95;0.85;;;;;;;19.62;42.96;95218.25;10442851;28;20049;-51
2023/03/07 07:38:53;;;;;;;0.98;0.73;;;;;;;19.64;42.61;95216.78;10442626;28;20079;-52
2023/03/07 07:44:13;;;;;;;0.93;0.82;;;;;;;19.67;42.62;95213.34;10457746;28;20044;-53
2023/03/07 07:49:45;;;;;;;0.70;0.70;;;;;;;19.71;42.59;95216.09;10442733;28;20075;-50
2023/03/07 07:55:05;;;;;;;1.00;0.90;;;;;;;19.74;42.62;95215.41;10457172;28;20501;-51
2023/03/07 08:00:25;;;;;;;0.98;0.88;;;;;;;19.78;42.39;95215.44;10457230;28;20535;-51
2023/03/07 08:05:47;;;;;;;0.73;0.70;;;;;;;19.80;42.29;95205.84;10457176;28;20057;-51
2023/03/07 08:11:07;;;;;;;0.57;0.55;;;;;;;19.84;42.22;95208.59;10457208;28;20056;-52
2023/03/07 08:16:26;;;;;;;0.80;0.80;;;;;;;19.85;42.18;95210.91;10470111;28;20044;-53
2023/03/07 08:21:46;;;;;;;1.08;0.63;;;;;;;19.88;42.22;95210.19;10457044;28;20056;-51
2023/03/07 08:27:05;;;;;;;0.60;0.60;;;;;;;19.92;42.42;95199.44;10456591;28;20049;-51
2023/03/07 08:32:25;;;;;;;0.93;0.93;;;;;;;19.95;42.48;95213.00;10457111;28;20055;-51
2023/03/07 08:37:45;;;;;;;1.08;0.90;;;;;;;19.99;42.45;95209.56;10455772;28;20103;-52
2023/03/07 08:43:05;;;;;;;0.80;0.80;;;;;;;20.02;42.42;95206.16;10457154;28;20048;-51
2023/03/07 08:48:25;;;;;;;1.55;1.08;;;;;;;20.05;42.02;95213.50;10464977;28;20053;-51
2023/03/07 08:53:45;;;;;;;12.93;9.48;;;;;;;20.08;41.87;95210.09;10463891;28;20521;-51
2023/03/07 08:59:05;;;;;;;13.52;9.82;;;;;;;20.13;41.70;95234.06;10464385;28;20053;-51
2023/03/07 09:04:24;;;;;;;11.80;8.45;;;;;;;20.14;41.40;95227.53;10463933;28;20053;-52
2023/03/07 09:09:43;;;;;;;15.02;8.20;;;;;;;20.18;41.21;95230.31;10463993;28;20053;-50
2023/03/07 09:15:03;;;;;;;11.50;7.78;;;;;;;20.20;40.97;95215.25;10463821;28;20080;-53
2023/03/07 09:20:23;;;;;;;8.77;6.28;;;;;;;20.23;40.89;95217.25;10463679;28;20049;-51
2023/03/07 09:25:43;;;;;;;9.80;6.40;;;;;;;20.26;40.59;95226.53;10463329;28;20049;-52
2023/03/07 09:31:10;;;;;;;10.25;5.60;;;;;;;20.27;40.41;95223.47;10463178;28;20102;-52
2023/03/07 09:36:30;;;;;;;7.85;5.45;;;;;;;20.30;40.33;95206.50;10463089;28;20052;-53
2023/03/07 09:42:03;;;;;;;9.52;5.20;;;;;;;20.33;40.07;95197.66;10463004;28;20048;-52
2023/03/07 09:48:04;;;;;;;9.82;5.38;;;;;;;20.35;39.82;95195.38;10475967;28;20055;-52
2023/03/07 09:53:36;;;;;;;9.35;5.30;;;;;;;20.40;39.86;95174.56;10428269;28;20059;-52
2023/03/07 09:59:02;;;;;;;9.00;5.07;;;;;;;20.42;39.86;95177.66;10462153;28;20064;-52
2023/03/07 10:04:32;;;;;;;7.18;4.90;;;;;;;20.45;39.60;95176.94;10475336;28;20045;-52
2023/03/07 10:09:56;;;;;;;7.72;4.65;;;;;;;20.48;39.60;95171.56;10461843;28;20099;-52
2023/03/07 10:15:37;;;;;;;8.23;4.38;;;;;;;20.49;39.32;95156.13;10461351;28;20072;-52
2023/03/07 10:21:17;;;;;;;6.78;4.22;;;;;;;20.52;39.16;95166.19;10461533;28;20053;-53
2023/03/07 10:27:08;;;;;;;7.32;4.10;;;;;;;20.53;39.14;95162.34;10460513;28;20453;-54
2023/03/07 10:32:47;;;;;;;10.43;4.07;;;;;;;20.56;39.06;95150.75;10460255;28;20454;-52
2023/03/07 10:38:31;;;;;;;7.22;3.78;;;;;;;20.59;38.95;95150.06;10460586;28;20049;-52
2023/03/07 10:43:52;;;;;;;7.22;4.03;;;;;;;20.61;39.03;95152.41;10460296;28;20052;-53
2023/03/07 10:49:22;;;;;;;7.03;4.22;;;;;;;20.63;38.97;95144.69;10471735;28;20053;-53
2023/03/07 10:54:42;;;;;;;6.80;3.90;;;;;;;20.65;39.03;95147.81;10458294;28;20447;-52
2023/03/07 11:00:12;;;;;;;7.70;4.28;;;;;;;20.66;38.82;95139.31;10459463;28;20477;-53
2023/03/07 11:05:34;;;;;;;5.97;4.18;;;;;;;20.67;38.95;95127.34;10459293;28;20103;-51
2023/03/07 11:10:54;;;;;;;6.80;3.53;;;;;;;20.68;38.87;95107.25;10459407;28;20061;-51
2023/03/07 11:16:20;;;;;;;5.40;3.53;;;;;;;20.69;38.73;95111.50;10458493;28;20045;-50
2023/03/07 11:21:39;;;;;;;5.85;3.40;;;;;;;20.70;38.84;95109.59;10443755;28;20057;-53
2023/03/07 11:26:59;;;;;;;4.82;3.28;;;;;;;20.70;39.00;95091.44;10459349;28;20465;-54
2023/03/07 11:32:23;;;;;;;5.28;3.55;;;;;;;20.69;39.02;95095.28;10458624;28;20052;-53
2023/03/07 11:37:45;;;;;;;5.03;3.38;;;;;;;20.71;39.23;95087.56;10442699;28;20493;-53
2023/03/07 11:43:20;;;;;;;4.68;3.13;;;;;;;20.71;39.41;95076.72;10471399;28;20055;-52
2023/03/07 11:49:07;;;;;;;4.22;2.90;;;;;;;20.71;39.52;95076.72;10442547;28;20056;-50
2023/03/07 11:55:00;;;;;;;5.20;3.22;;;;;;;20.71;39.67;95060.50;10457670;28;20045;-57
2023/03/07 12:01:04;;;;;;;4.57;2.75;;;;;;;20.71;39.85;95046.19;10457450;28;20114;-54
2023/03/07 12:06:38;;;;;;;4.55;3.00;;;;;;;20.70;40.03;95042.72;10448565;28;20060;-52
2023/03/07 12:12:16;;;;;;;3.85;2.90;;;;;;;20.72;40.08;95039.66;10457160;28;20441;-50
2023/03/07 12:18:03;;;;;;;3.78;2.67;;;;;;;20.71;40.45;95038.84;10441699;28;20072;-50
2023/03/07 12:23:35;;;;;;;3.88;2.28;;;;;;;20.70;40.64;95031.91;10456131;28;20045;-49
2023/03/07 12:29:02;;;;;;;4.82;2.50;;;;;;;20.69;40.46;95016.81;10456347;28;20497;-51
2023/03/07 12:34:37;;;;;;;3.40;2.20;;;;;;;20.69;39.83;95013.31;10440909;28;20045;-50
2023/03/07 12:40:01;;;;;;;5.57;2.65;;;;;;;20.68;39.91;95012.56;10441304;28;20053;-51
2023/03/07 12:45:23;;;;;;;5.28;2.33;;;;;;;20.66;38.36;95017.56;10455994;28;20045;-51
2023/03/07 12:51:02;;;;;;;4.13;2.20;;;;;;;20.59;38.48;95009.38;10455844;28;20061;-51
2023/03/07 12:56:25;;;;;;;4.40;2.10;;;;;;;20.59;38.96;95003.97;10469294;28;20045;-52
2023/03/07 13:01:46;;;;;;;2.28;1.70;;;;;;;20.59;38.98;95009.38;10440857;28;20064;-48
2023/03/07 13:07:25;;;;;;;3.50;1.60;;;;;;;20.59;39.22;95003.97;10469116;28;20094;-52
2023/03/07 13:12:45;;;;;;;5.75;1.85;;;;;;;20.58;39.68;95007.81;10469052;28;20056;-51
2023/03/07 13:18:25;;;;;;;4.55;1.75;;;;;;;20.59;40.18;94995.84;10455769;28;20057;-51
2023/03/07 13:23:44;;;;;;;10.18;1.90;;;;;;;20.59;40.56;94997.75;10468965;28;20107;-50
2023/03/07 13:29:04;;;;;;;6.25;1.52;;;;;;;20.58;40.51;94991.59;10455944;28;20049;-52
2023/03/07 13:34:50;;;;;;;3.25;1.80;;;;;;;20.55;40.44;94981.50;10461632;28;20062;-50
2023/03/07 13:40:41;;;;;;;3.10;1.50;;;;;;;20.55;39.42;94976.84;10476150;28;20362;-50
2023/03/07 13:46:45;;;;;;;4.18;1.50;;;;;;;20.52;39.97;94982.22;10459366;28;20117;-52
2023/03/07 13:52:35;;;;;;;3.75;1.42;;;;;;;20.50;40.40;94971.00;10462283;28;20060;-52
2023/03/07 13:57:56;;;;;;;3.85;1.55;;;;;;;20.50;40.53;94968.31;10438910;28;20053;-51
2023/03/07 14:03:23;;;;;;;3.58;1.38;;;;;;;20.49;41.02;94958.66;10475411;28;20045;-52
2023/03/07 14:08:43;;;;;;;3.35;1.50;;;;;;;20.47;41.29;94960.97;10446221;28;20515;-52
2023/03/07 14:14:44;;;;;;;2.78;1.20;;;;;;;20.45;41.68;94957.84;10461827;28;20056;-51
2023/03/07 14:20:41;;;;;;;4.50;1.30;;;;;;;20.45;42.01;94963.25;10461989;28;20076;-51
2023/03/07 14:26:12;;;;;;;2.58;1.20;;;;;;;20.44;41.94;94959.00;10461111;28;20048;-51
2023/03/07 14:31:40;;;;;;;4.40;1.90;;;;;;;20.42;42.16;94956.66;10459238;28;20040;-50
2023/03/07 14:37:16;;;;;;;1.85;1.30;;;;;;;20.41;42.55;94952.41;10460670;28;20049;-51
2023/03/07 14:42:51;;;;;;;2.85;2.58;;;;;;;20.16;32.48;94952.19;10444241;28;20072;-50
2023/03/07 14:48:35;;;;;;;2.50;1.80;;;;;;;20.04;34.15;94947.06;10460338;28;20398;-49
2023/03/07 14:53:56;;;;;;;3.67;1.48;;;;;;;20.09;36.39;94944.00;10460171;28;20409;-50
2023/03/07 14:59:16;;;;;;;2.38;1.45;;;;;;;20.14;37.31;94940.97;10459913;28;20053;-51
2023/03/07 15:04:35;;;;;;;3.72;1.20;;;;;;;20.18;38.20;94946.41;10459602;28;20049;-49
2023/03/07 15:09:55;;;;;;;4.00;1.20;;;;;;;20.20;38.97;94950.28;10459658;28;20421;-50
2023/03/07 15:15:31;;;;;;;1.38;1.00;;;;;;;20.22;39.82;94939.09;10458628;28;20492;-49
2023/03/07 15:20:52;;;;;;;2.13;1.00;;;;;;;20.24;39.79;94942.22;10459038;28;20049;-52
2023/03/07 15:26:19;;;;;;;1.08;0.90;;;;;;;20.26;40.15;94937.22;10457178;28;20052;-52
2023/03/07 15:32:03;;;;;;;1.20;0.90;;;;;;;20.27;40.53;94936.84;10458486;28;20049;-50
2023/03/07 15:37:28;;;;;;;1.60;1.10;;;;;;;20.28;40.81;94938.38;10458281;28;20053;-51
2023/03/07 15:42:49;;;;;;;1.65;1.20;;;;;;;20.30;41.11;94927.97;10458147;28;20057;-51
2023/03/07 15:48:29;;;;;;;1.20;1.10;;;;;;;20.29;39.22;94934.53;10457735;28;20060;-51
2023/03/07 15:54:10;;;;;;;2.95;1.30;;;;;;;20.30;39.97;94935.31;10442294;28;20111;-50
2023/03/07 15:59:30;;;;;;;2.00;1.40;;;;;;;20.31;40.31;94934.19;10456811;28;20079;-50
2023/03/07 16:04:52;;;;;;;2.53;1.30;;;;;;;20.33;40.86;94943.47;10441796;28;20515;-49
2023/03/07 16:10:12;;;;;;;2.30;1.10;;;;;;;20.34;41.18;94950.41;10456968;28;20053;-49
2023/03/07 16:15:32;;;;;;;2.75;1.20;;;;;;;20.35;41.42;94962.03;10456940;28;20057;-47
2023/03/07 16:20:51;;;;;;;1.25;1.10;;;;;;;20.38;41.65;94955.84;10456886;28;20056;-49
2023/03/07 16:26:16;;;;;;;2.20;1.05;;;;;;;20.40;41.43;94953.53;10456611;28;20061;-47
2023/03/07 16:31:36;;;;;;;2.20;1.35;;;;;;;20.41;41.59;94954.34;10456413;28;20056;-47
2023/03/07 16:36:56;;;;;;;2.47;1.20;;;;;;;20.42;41.75;94945.84;10456519;28;20048;-49
2023/03/07 16:42:21;;;;;;;1.10;1.00;;;;;;;20.43;41.80;94947.41;10469726;28;20048;-49
2023/03/07 16:47:40;;;;;;;3.40;1.10;;;;;;;20.45;41.89;94947.81;10454452;28;20045;-48
2023/03/07 16:53:00;;;;;;;1.92;1.10;;;;;;;20.47;42.03;94952.84;10455639;28;20065;-49
2023/03/07 16:58:23;;;;;;;0.93;0.90;;;;;;;20.48;42.00;94952.47;10469196;28;20048;-50
2023/03/07 17:03:42;;;;;;;2.53;1.17;;;;;;;20.51;42.12;94962.53;10456167;28;20060;-47
2023/03/07 17:09:03;;;;;;;1.58;1.10;;;;;;;20.52;41.92;94968.72;10464236;28;20065;-49
2023/03/07 17:14:23;;;;;;;1.55;1.20;;;;;;;20.55;42.05;94970.69;10462279;28;20045;-49
2023/03/07 17:19:42;;;;;;;1.60;1.10;;;;;;;20.58;42.03;94969.13;10464137;28;20053;-51
2023/03/07 17:25:03;;;;;;;3.13;1.10;;;;;;;20.58;42.34;94978.06;10476936;28;20400;-49
2023/03/07 17:30:25;;;;;;;1.35;1.00;;;;;;;20.60;42.42;94986.59;10476809;28;20490;-49
2023/03/07 17:35:44;;;;;;;3.05;1.10;;;;;;;20.62;42.61;94984.28;10463138;28;20053;-50
2023/03/07 17:41:04;;;;;;;1.65;1.00;;;;;;;20.64;42.50;94986.59;10463121;28;20059;-50
2023/03/07 17:46:23;;;;;;;3.28;0.90;;;;;;;20.67;42.47;94983.16;10476527;28;20436;-51
2023/03/07 17:51:43;;;;;;;1.55;1.10;;;;;;;20.67;42.30;94986.63;10462138;28;20061;-50
2023/03/07 17:57:03;;;;;;;2.88;1.30;;;;;;;20.71;42.61;94983.97;10462141;28;20055;-50
2023/03/07 18:02:22;;;;;;;3.15;1.10;;;;;;;20.71;42.62;94982.03;10462018;28;20409;-48
2023/03/07 18:07:41;;;;;;;5.75;4.57;;;;;;;20.25;30.67;94979.69;10462229;28;20131;-50
2023/03/07 18:13:01;;;;;;;7.60;4.97;;;;;;;19.74;28.51;94977.66;10461028;28;20048;-49
2023/03/07 18:18:21;;;;;;;4.25;2.90;;;;;;;20.00;34.50;94973.28;10461521;28;20052;-47
2023/03/07 18:23:41;;;;;;;2.90;2.40;;;;;;;20.22;35.36;94966.91;10474799;28;20370;-49
2023/03/07 18:29:00;;;;;;;2.83;2.13;;;;;;;20.34;35.82;94969.34;10461115;28;20061;-49
2023/03/07 18:34:20;;;;;;;2.13;1.90;;;;;;;20.40;36.22;94971.72;10460298;28;20045;-47
2023/03/07 18:39:40;;;;;;;4.53;2.00;;;;;;;20.44;36.62;94975.97;10460258;28;20061;-53
2023/03/07 18:44:59;;;;;;;2.60;1.52;;;;;;;20.47;37.03;94972.53;10460757;28;20049;-52
2023/03/07 18:50:18;;;;;;;2.45;1.92;;;;;;;20.47;37.42;94966.38;10459568;28;20508;-52
2023/03/07 18:55:38;;;;;;;2.33;1.85;;;;;;;20.49;37.82;94967.53;10458213;28;20443;-53
2023/03/07 19:01:16;;;;;;;4.32;1.60;;;;;;;20.52;38.17;94974.13;10460239;28;20126;-51
2023/03/07 19:06:38;;;;;;;1.50;1.40;;;;;;;20.55;38.52;94976.09;10473480;28;20056;-53
2023/03/07 19:11:58;;;;;;;3.20;1.90;;;;;;;20.55;38.79;94970.69;10459617;28;20048;-47
2023/03/07 19:17:17;;;;;;;1.73;1.45;;;;;;;20.57;39.04;94973.00;10472507;28;20094;-47
2023/03/07 19:22:37;;;;;;;2.88;1.45;;;;;;;20.58;39.32;94988.06;10459141;28;20053;-47
2023/03/07 19:27:56;;;;;;;2.95;1.58;;;;;;;20.60;39.55;94994.72;10457666;28;20551;-50
2023/03/07 19:33:15;;;;;;;3.33;1.38;;;;;;;20.63;39.70;94985.06;10458850;28;20390;-49
2023/03/07 19:38:35;;;;;;;2.10;1.55;;;;;;;20.64;39.94;94989.31;10458641;28;20053;-50
2023/03/07 19:43:56;;;;;;;3.03;1.60;;;;;;;20.65;40.14;94986.25;10458399;28;20103;-52
2023/03/07 19:49:16;;;;;;;2.35;1.30;;;;;;;20.67;40.20;94989.34;10457913;28;20075;-47
2023/03/07 19:54:35;;;;;;;1.95;1.23;;;;;;;20.67;40.41;94978.53;10457232;28;20532;-48
2023/03/07 19:59:55;;;;;;;3.72;1.58;;;;;;;20.70;40.63;94982.44;10457974;28;20083;-49
2023/03/07 20:05:15;;;;;;;1.52;1.35;;;;;;;20.71;40.54;94984.72;10457608;28;20067;-50
2023/03/07 20:10:35;;;;;;;2.00;1.27;;;;;;;20.71;40.55;94973.91;10457124;28;20057;-51
2023/03/07 20:15:54;;;;;;;1.83;1.27;;;;;;;20.72;40.63;94974.72;10457200;28;20087;-50
2023/03/07 20:21:15;;;;;;;2.95;1.30;;;;;;;20.72;40.80;94986.31;10470488;28;20041;-52
2023/03/07 20:26:37;;;;;;;1.63;1.30;;;;;;;20.73;40.85;94981.66;10456957;28;20114;-48
2023/03/07 20:31:56;;;;;;;1.58;1.30;;;;;;;20.73;40.79;94998.66;10470283;28;20048;-51
2023/03/07 20:37:16;;;;;;;1.73;1.55;;;;;;;20.72;40.85;94996.34;10456710;28;20049;-49
2023/03/07 20:42:36;;;;;;;1.73;1.10;;;;;;;20.73;40.95;94992.47;10455811;28;20056;-50
2023/03/07 20:47:55;;;;;;;1.70;1.40;;;;;;;20.72;41.01;95002.53;10456550;28;20425;-52
2023/03/07 20:53:17;;;;;;;2.28;1.45;;;;;;;20.73;41.10;95009.50;10456676;28;20059;-51
2023/03/07 20:58:37;;;;;;;2.20;1.50;;;;;;;20.76;41.17;94999.06;10455725;28;20057;-51
2023/03/07 21:04:04;;;;;;;3.03;1.40;;;;;;;20.75;41.54;95003.72;10456168;28;20408;-52
2023/03/07 21:09:24;;;;;;;2.63;1.50;;;;;;;20.77;41.61;95008.75;10469395;28;20041;-51
2023/03/07 21:14:44;;;;;;;2.88;1.58;;;;;;;20.77;41.74;95009.53;10455654;28;20061;-51
2023/03/07 21:20:04;;;;;;;3.85;1.63;;;;;;;20.78;41.91;95002.16;10455824;28;20456;-51
2023/03/07 21:25:24;;;;;;;2.25;1.40;;;;;;;20.78;41.80;95010.28;10455916;28;20060;-50
2023/03/07 21:30:43;;;;;;;2.15;1.50;;;;;;;20.78;41.91;95011.09;10469017;28;20052;-52
2023/03/07 21:36:03;;;;;;;2.08;1.20;;;;;;;20.78;41.98;95015.69;10454609;28;20136;-50
2023/03/07 21:41:26;;;;;;;2.55;1.30;;;;;;;20.78;42.03;95013.00;10455315;28;20059;-51
2023/03/07 21:46:46;;;;;;;1.70;1.25;;;;;;;20.77;41.90;95012.22;10468591;28;20056;-51
2023/03/07 21:52:05;;;;;;;2.17;1.30;;;;;;;20.78;42.02;95013.00;10457986;28;20068;-49
2023/03/07 21:57:27;;;;;;;2.72;1.48;;;;;;;20.76;42.00;95007.97;10462387;28;20056;-50
2023/03/07 22:02:46;;;;;;;1.70;1.20;;;;;;;20.76;41.97;95029.63;10462500;28;20053;-50
2023/03/07 22:08:06;;;;;;;1.98;1.00;;;;;;;20.74;42.05;95027.28;10462139;28;20103;-52
2023/03/07 22:13:26;;;;;;;2.58;1.17;;;;;;;20.74;42.04;95026.53;10461851;28;20095;-48
2023/03/07 22:18:56;;;;;;;2.78;1.10;;;;;;;20.74;42.20;95021.09;10474869;28;20049;-50
2023/03/07 22:24:15;;;;;;;1.98;1.25;;;;;;;20.72;42.03;95016.06;10461570;28;20119;-50
2023/03/07 22:29:35;;;;;;;1.85;1.20;;;;;;;20.71;41.99;95006.38;10461229;28;20057;-51
2023/03/07 22:34:54;;;;;;;2.15;1.20;;;;;;;20.70;42.05;95015.66;10461328;28;20057;-50
2023/03/07 22:40:14;;;;;;;1.70;1.08;;;;;;;20.68;42.20;95012.56;10474328;28;20052;-50
2023/03/07 22:45:33;;;;;;;1.67;1.30;;;;;;;20.69;42.05;95005.22;10460627;28;20053;-51
2023/03/07 22:50:53;;;;;;;1.52;1.00;;;;;;;20.66;42.15;95024.88;10460559;28;20075;-51
2023/03/07 22:56:21;;;;;;;2.13;1.27;;;;;;;20.65;42.19;95012.53;10460261;28;20049;-50
2023/03/07 23:01:41;;;;;;;1.17;0.90;;;;;;;20.64;42.10;95005.53;10459239;28;20057;-50
2023/03/07 23:07:01;;;;;;;1.77;1.17;;;;;;;20.63;42.02;95004.00;10473291;28;20107;-51
2023/03/07 23:12:20;;;;;;;1.23;0.90;;;;;;;20.61;42.00;95012.50;10459817;28;20057;-52
2023/03/07 23:17:39;;;;;;;1.67;1.17;;;;;;;20.60;41.99;95021.78;10459298;28;20053;-52
2023/03/07 23:22:59;;;;;;;1.10;0.85;;;;;;;20.59;42.13;95031.03;10458742;28;20056;-51
2023/03/07 23:28:18;;;;;;;1.10;0.98;;;;;;;20.57;42.08;95036.00;10458318;28;20515;-51
2023/03/07 23:33:38;;;;;;;1.30;0.95;;;;;;;20.56;42.11;95042.56;10459093;28;20045;-50
2023/03/07 23:38:58;;;;;;;1.60;0.93;;;;;;;20.55;42.09;95047.19;10458375;28;20052;-49
2023/03/07 23:44:17;;;;;;;1.15;0.85;;;;;;;20.54;42.06;95053.78;10458615;28;20052;-52
2023/03/07 23:49:37;;;;;;;2.15;1.05;;;;;;;20.52;42.07;95057.97;10457442;28;20064;-52
2023/03/07 23:54:57;;;;;;;1.52;1.00;;;;;;;20.51;42.07;95054.50;10458192;28;20049;-50
